C. Angelo — WCZ5866 — position and weather

sailwx.info

Track history (hours):
 
Tides and Currents Weather Stations Pressure Air Temp Water Temp Dewpoint Dewpoint Depression Visibility Wind Speed Wind Dir Waves Ship Positions

C. Angelo

Owner: G T 110 INC, NEW HAVEN, CT. More information available from US FCC via Universal Licensing System and Coast Guard Vessel Documentation Center.

Last reported at 2017-Jan-17 22:33 UTC. Time now 2017-Jan-23 18:48 UTC.
Position N 40°53' W 073°44'.

Length 30 m; draft 4 m.

Type: Tug. MMSI: 366988420.

Date/timePositionNaut miles runAvg speedWind from/ knotsBaromVisibWave heightAir tempDewpointWater temp
2017-Jan-17 22:33N 40°53' W 073°44'9 9.0
2017-Jan-17 21:33N 40°48' W 073°54'7 6.7
2017-Jan-17 20:33N 40°42' W 073°58'0 0.0
2017-Jan-17 19:33N 40°42' W 073°58'0 0.0
2017-Jan-17 18:33N 40°42' W 073°58'0 0.0
2017-Jan-17 17:33N 40°42' W 073°58'0 0.0
2017-Jan-17 16:33N 40°42' W 073°58'0 0.0
2017-Jan-17 15:33N 40°42' W 073°58'0 0.0
2017-Jan-17 14:33N 40°42' W 073°58'0 0.0
2017-Jan-17 13:33N 40°42' W 073°58'0 0.0
2017-Jan-17 12:33N 40°42' W 073°58'0 0.0
2017-Jan-17 11:33N 40°42' W 073°58'0 0.0
2017-Jan-17 10:33N 40°42' W 073°58'0 0.0
2017-Jan-17 09:33N 40°42' W 073°58'0 0.0
2017-Jan-17 08:33N 40°42' W 073°58'0 0.0
2017-Jan-17 07:33N 40°42' W 073°58'0 0.0
2017-Jan-17 06:33N 40°42' W 073°58'0 0.0
2017-Jan-17 05:33N 40°42' W 073°58'0 0.0
2017-Jan-17 04:33N 40°42' W 073°58'0 0.0
2017-Jan-17 03:33N 40°42' W 073°58'0 0.0
2017-Jan-17 02:33N 40°42' W 073°58'0 0.0
2017-Jan-17 01:33N 40°42' W 073°58'0 0.0
2017-Jan-17 00:33N 40°42' W 073°58'0 0.0
2017-Jan-16 23:33N 40°42' W 073°58'0 0.0
2017-Jan-16 22:33N 40°42' W 073°58'0 0.0
2017-Jan-16 21:33N 40°42' W 073°58'0 0.0
2017-Jan-16 20:33N 40°42' W 073°58'0 0.0
2017-Jan-16 19:33N 40°42' W 073°58'0 0.0
2017-Jan-16 18:33N 40°42' W 073°58'0 0.0
2017-Jan-16 17:33N 40°42' W 073°58'0 0.0
2017-Jan-16 16:33N 40°42' W 073°58'0 0.0
2017-Jan-16 15:33N 40°42' W 073°58'0 0.0
2017-Jan-16 14:33N 40°42' W 073°58'0 0.0
2017-Jan-16 13:33N 40°42' W 073°58'0 0.0
2017-Jan-16 12:33N 40°42' W 073°58'0 0.0
2017-Jan-16 11:33N 40°42' W 073°58'2 1.8
2017-Jan-16 10:33N 40°42' W 074°00'4 3.9
2017-Jan-16 09:33N 40°38' W 074°03'3 2.7
2017-Jan-16 08:34N 40°35' W 074°02'5 4.8
2017-Jan-16 07:33N 40°31' W 073°59'5 5.4
2017-Jan-16 06:33N 40°28' W 073°54'35 3.5
2017-Jan-15 20:32N 39°52' W 073°57'6 6.1
2017-Jan-15 19:33N 39°46' W 073°58'6 5.9
2017-Jan-15 18:30N 39°41' W 074°02'6 6.0
2017-Jan-15 17:33N 39°36' W 074°06'6 6.1
2017-Jan-15 16:31N 39°31' W 074°11'9 7.1
2017-Jan-15 15:14N 39°23' W 074°15'5 7.5
2017-Jan-15 14:33N 39°18' W 074°19'8 7.6
2017-Jan-15 13:33N 39°13' W 074°25'10 9.8
2017-Jan-15 12:32N 39°05' W 074°34'5 5.3
2017-Jan-15 11:33N 39°02' W 074°38'7 6.8
2017-Jan-15 10:33N 38°57' W 074°44'17 5.4
2017-Jan-15 07:25N 38°56' W 075°06'8 9.3
2017-Jan-15 06:33N 39°03' W 075°10'8 8.0
2017-Jan-15 05:33N 39°10' W 075°15'7 6.6
2017-Jan-15 04:33N 39°15' W 075°20'5 5.4
2017-Jan-15 03:33N 39°19' W 075°24'6 5.8
2017-Jan-15 02:33N 39°24' W 075°29'7 6.7
2017-Jan-15 01:33N 39°30' W 075°34'4 4.1
2017-Jan-15 00:33N 39°34' W 075°34'7 6.9
2017-Jan-14 23:33N 39°33' W 075°43'6 5.8
2017-Jan-14 22:33N 39°32' W 075°50'5 5.2
2017-Jan-14 21:33N 39°30' W 075°56'5 5.1
2017-Jan-14 20:33N 39°26' W 076°01'5 4.8
2017-Jan-14 19:33N 39°23' W 076°06'5 5.0
2017-Jan-14 18:33N 39°20' W 076°11'6 5.1
2017-Jan-14 17:18N 39°14' W 076°14'5 6.0
2017-Jan-14 16:33N 39°11' W 076°17'5 5.0
2017-Jan-14 15:33N 39°10' W 076°24'7 6.8
2017-Jan-14 14:33N 39°13' W 076°32'4 4.0
2017-Jan-14 13:33N 39°16' W 076°35'0 0.1
2017-Jan-14 12:33N 39°16' W 076°35'0 0.0
2017-Jan-14 11:33N 39°16' W 076°35'0 0.0
2017-Jan-14 10:33N 39°16' W 076°35'0 0.0
2017-Jan-14 09:33N 39°16' W 076°35'0 0.0
2017-Jan-14 08:33N 39°16' W 076°35'0 0.0
2017-Jan-14 07:33N 39°16' W 076°35'0 0.0
2017-Jan-14 06:33N 39°16' W 076°35'0 0.0
2017-Jan-14 05:33N 39°16' W 076°35'0 0.0
2017-Jan-14 04:33N 39°16' W 076°35'0 0.0
2017-Jan-14 03:33N 39°16' W 076°35'0 0.0
2017-Jan-13 23:33N 39°16' W 076°35'0 0.0
2017-Jan-13 22:33N 39°16' W 076°35'0 0.0
2017-Jan-13 21:33N 39°16' W 076°35'0 0.0
2017-Jan-13 20:33N 39°16' W 076°35'0 0.0
2017-Jan-13 19:33N 39°16' W 076°35'0 0.0
2017-Jan-13 18:33N 39°16' W 076°35'0 0.0
2017-Jan-13 17:33N 39°16' W 076°35'0 0.4
2017-Jan-13 16:33N 39°16' W 076°34'5 5.1
2017-Jan-13 15:33N 39°12' W 076°30'7 7.4
2017-Jan-13 14:33N 39°07' W 076°24'6 2.9
2017-Jan-13 12:33N 39°10' W 076°18'7 6.6
2017-Jan-13 11:33N 39°16' W 076°14'8 8.4
2017-Jan-13 10:33N 39°23' W 076°07'9 9.1
2017-Jan-13 09:33N 39°28' W 075°58'9 8.8
2017-Jan-13 08:33N 39°32' W 075°47'9 9.4
2017-Jan-13 07:33N 39°33' W 075°35'6 5.6
2017-Jan-13 06:33N 39°28' W 075°34'8 8.4
2017-Jan-13 05:33N 39°21' W 075°27'9 9.0
2017-Jan-13 04:33N 39°15' W 075°19'9 9.3
2017-Jan-13 03:33N 39°07' W 075°13'9 9.2
2017-Jan-13 02:33N 38°59' W 075°07'58 6.4
2017-Jan-12 17:33N 39°33' W 074°08'8 7.9
2017-Jan-12 16:30N 39°41' W 074°03'8 7.7
2017-Jan-12 15:32N 39°48' W 073°59'41 8.3
2017-Jan-12 10:33N 40°29' W 073°55'6 6.1
2017-Jan-12 09:33N 40°32' W 074°02'8 8.3
2017-Jan-12 08:33N 40°41' W 074°02'4 3.5
2017-Jan-12 07:33N 40°42' W 073°58'0 0.0
2017-Jan-12 06:33N 40°42' W 073°58'0 0.0
2017-Jan-12 05:33N 40°42' W 073°58'0 0.0
2017-Jan-12 04:33N 40°42' W 073°58'0 0.0
2017-Jan-12 03:33N 40°42' W 073°58'0 0.0
2017-Jan-12 02:33N 40°42' W 073°58'0 0.0
2017-Jan-12 01:33N 40°42' W 073°58'0 0.0
2017-Jan-12 00:33N 40°42' W 073°58'0 0.0
2017-Jan-11 23:33N 40°42' W 073°58'0 0.0
2017-Jan-11 22:33N 40°42' W 073°58'0 0.0
2017-Jan-11 21:33N 40°42' W 073°58'0 0.0
2017-Jan-11 20:33N 40°42' W 073°58'0 0.0
2017-Jan-11 19:33N 40°42' W 073°58'0 0.0
2017-Jan-11 18:33N 40°42' W 073°58'0 0.0
2017-Jan-11 17:33N 40°42' W 073°58'0 0.0
2017-Jan-11 16:33N 40°42' W 073°58'0 0.0
2017-Jan-11 15:33N 40°42' W 073°58'0 0.0
2017-Jan-11 14:33N 40°42' W 073°58'0 0.0
2017-Jan-11 13:33N 40°42' W 073°58'0 0.0
2017-Jan-11 12:33N 40°42' W 073°58'0 0.0
2017-Jan-11 11:33N 40°42' W 073°58'0 0.0
2017-Jan-11 10:33N 40°42' W 073°58'0 0.0
2017-Jan-11 09:33N 40°42' W 073°58'0 0.0
2017-Jan-11 08:33N 40°42' W 073°58'0 0.0
2017-Jan-11 07:33N 40°42' W 073°58'0 0.0
2017-Jan-11 06:33N 40°42' W 073°58'0 0.0
2017-Jan-11 05:33N 40°42' W 073°58'0 0.0
2017-Jan-11 04:33N 40°42' W 073°58'0 0.0
2017-Jan-11 03:33N 40°42' W 073°58'0 0.0
2017-Jan-11 02:33N 40°42' W 073°58'0 0.0
2017-Jan-11 01:33N 40°42' W 073°58'0 0.0
2017-Jan-11 00:33N 40°42' W 073°58'0 0.0
2017-Jan-10 23:33N 40°42' W 073°58'0 0.0
2017-Jan-10 22:33N 40°42' W 073°58'0 0.0
2017-Jan-10 21:33N 40°42' W 073°58'0 0.0
2017-Jan-10 20:33N 40°42' W 073°58'0 0.0
2017-Jan-10 19:33N 40°42' W 073°58'0 0.0
2017-Jan-10 18:33N 40°42' W 073°58'0 0.0
2017-Jan-10 17:33N 40°42' W 073°58'0 0.0
2017-Jan-10 16:33N 40°42' W 073°58'0 0.0
2017-Jan-10 15:33N 40°42' W 073°58'0 0.0
2017-Jan-10 14:33N 40°42' W 073°58'0 0.0
2017-Jan-10 13:33N 40°42' W 073°58'0 0.0
2017-Jan-10 12:33N 40°42' W 073°58'2 1.6
2017-Jan-10 11:33N 40°42' W 074°00'5 5.2
2017-Jan-10 10:34N 40°37' W 074°04'5 4.8
2017-Jan-10 09:33N 40°33' W 074°02'6 6.3
2017-Jan-10 08:32N 40°29' W 073°55'37 6.1
2017-Jan-10 02:30N 39°52' W 073°57'6 5.9
2017-Jan-10 01:28N 39°46' W 073°58'6 6.0
2017-Jan-10 00:31N 39°41' W 074°01'6 6.1
2017-Jan-09 23:33N 39°35' W 074°04'60 5.0
2017-Jan-09 11:31N 39°04' W 075°10'4 4.2
2017-Jan-09 10:33N 39°07' W 075°13'3 3.3
2017-Jan-09 09:33N 39°10' W 075°15'3 3.1
2017-Jan-09 08:33N 39°13' W 075°17'5 4.8
2017-Jan-09 07:33N 39°16' W 075°21'7 6.9
2017-Jan-09 06:33N 39°22' W 075°27'8 8.1
2017-Jan-09 05:33N 39°28' W 075°34'6 5.8
2017-Jan-09 04:33N 39°34' W 075°35'6 5.8
2017-Jan-09 03:33N 39°33' W 075°42'5 5.3
2017-Jan-09 02:33N 39°32' W 075°49'5 4.8
2017-Jan-09 01:33N 39°30' W 075°55'6 5.6
2017-Jan-09 00:33N 39°26' W 075°60'5 5.4
2017-Jan-08 23:33N 39°23' W 076°05'5 5.4
2017-Jan-08 22:33N 39°20' W 076°11'7 4.8
2017-Jan-08 21:11N 39°14' W 076°14'3 5.0
2017-Jan-08 20:32N 39°11' W 076°17'5 4.4
2017-Jan-08 19:17N 39°10' W 076°23'4 4.9
2017-Jan-08 18:32N 39°11' W 076°28'5 5.0
2017-Jan-08 17:33N 39°14' W 076°33'2 2.4
2017-Jan-08 16:33N 39°16' W 076°35'0 0.0
2017-Jan-08 15:33N 39°16' W 076°35'0 0.0
2017-Jan-08 14:33N 39°16' W 076°35'0 0.0
2017-Jan-08 13:33N 39°16' W 076°35'0 0.0
2017-Jan-08 12:33N 39°16' W 076°35'0 0.0
2017-Jan-08 11:33N 39°16' W 076°35'0 0.0
2017-Jan-08 10:33N 39°16' W 076°35'0 0.0
2017-Jan-08 09:33N 39°16' W 076°35'0 0.0
2017-Jan-08 08:33N 39°16' W 076°35'0 0.0
2017-Jan-08 07:33N 39°16' W 076°35'0 0.0
2017-Jan-08 06:33N 39°16' W 076°35'0 0.0
2017-Jan-08 05:33N 39°16' W 076°35'0 0.0
2017-Jan-08 04:33N 39°16' W 076°35'0 0.0
2017-Jan-08 03:32N 39°16' W 076°35'0 0.2
2017-Jan-08 02:33N 39°16' W 076°35'0 0.2
2017-Jan-08 01:30N 39°16' W 076°35'0 0.0
2017-Jan-08 00:33N 39°16' W 076°35'0 0.0
2017-Jan-07 23:30N 39°16' W 076°35'0 0.0
2017-Jan-07 22:33N 39°16' W 076°35'  
Track history (hours):
 
Tides and Currents Weather Stations Pressure Air Temp Water Temp Dewpoint Dewpoint Depression Visibility Wind Speed Wind Dir Waves Ship Positions

C. Angelo

Owner: G T 110 INC, NEW HAVEN, CT. More information available from US FCC via Universal Licensing System and Coast Guard Vessel Documentation Center.

Last reported at 2017-Jan-17 22:33 UTC. Time now 2017-Jan-23 18:48 UTC.
Position N 40°53' W 073°44'.

Length 30 m; draft 4 m.

Type: Tug. MMSI: 366988420.

Date/timePositionNaut miles runAvg speedWind from/ knotsBaromVisibWave heightAir tempDewpointWater temp
2017-Jan-17 22:33N 40°53' W 073°44'9 9.0
2017-Jan-17 21:33N 40°48' W 073°54'7 6.7
2017-Jan-17 20:33N 40°42' W 073°58'0 0.0
2017-Jan-17 19:33N 40°42' W 073°58'0 0.0
2017-Jan-17 18:33N 40°42' W 073°58'0 0.0
2017-Jan-17 17:33N 40°42' W 073°58'0 0.0
2017-Jan-17 16:33N 40°42' W 073°58'0 0.0
2017-Jan-17 15:33N 40°42' W 073°58'0 0.0
2017-Jan-17 14:33N 40°42' W 073°58'0 0.0
2017-Jan-17 13:33N 40°42' W 073°58'0 0.0
2017-Jan-17 12:33N 40°42' W 073°58'0 0.0
2017-Jan-17 11:33N 40°42' W 073°58'0 0.0
2017-Jan-17 10:33N 40°42' W 073°58'0 0.0
2017-Jan-17 09:33N 40°42' W 073°58'0 0.0
2017-Jan-17 08:33N 40°42' W 073°58'0 0.0
2017-Jan-17 07:33N 40°42' W 073°58'0 0.0
2017-Jan-17 06:33N 40°42' W 073°58'0 0.0
2017-Jan-17 05:33N 40°42' W 073°58'0 0.0
2017-Jan-17 04:33N 40°42' W 073°58'0 0.0
2017-Jan-17 03:33N 40°42' W 073°58'0 0.0
2017-Jan-17 02:33N 40°42' W 073°58'0 0.0
2017-Jan-17 01:33N 40°42' W 073°58'0 0.0
2017-Jan-17 00:33N 40°42' W 073°58'0 0.0
2017-Jan-16 23:33N 40°42' W 073°58'0 0.0
2017-Jan-16 22:33N 40°42' W 073°58'0 0.0
2017-Jan-16 21:33N 40°42' W 073°58'0 0.0
2017-Jan-16 20:33N 40°42' W 073°58'0 0.0
2017-Jan-16 19:33N 40°42' W 073°58'0 0.0
2017-Jan-16 18:33N 40°42' W 073°58'0 0.0
2017-Jan-16 17:33N 40°42' W 073°58'0 0.0
2017-Jan-16 16:33N 40°42' W 073°58'0 0.0
2017-Jan-16 15:33N 40°42' W 073°58'0 0.0
2017-Jan-16 14:33N 40°42' W 073°58'0 0.0
2017-Jan-16 13:33N 40°42' W 073°58'0 0.0
2017-Jan-16 12:33N 40°42' W 073°58'0 0.0
2017-Jan-16 11:33N 40°42' W 073°58'2 1.8
2017-Jan-16 10:33N 40°42' W 074°00'4 3.9
2017-Jan-16 09:33N 40°38' W 074°03'3 2.7
2017-Jan-16 08:34N 40°35' W 074°02'5 4.8
2017-Jan-16 07:33N 40°31' W 073°59'5 5.4
2017-Jan-16 06:33N 40°28' W 073°54'35 3.5
2017-Jan-15 20:32N 39°52' W 073°57'6 6.1
2017-Jan-15 19:33N 39°46' W 073°58'6 5.9
2017-Jan-15 18:30N 39°41' W 074°02'6 6.0
2017-Jan-15 17:33N 39°36' W 074°06'6 6.1
2017-Jan-15 16:31N 39°31' W 074°11'9 7.1
2017-Jan-15 15:14N 39°23' W 074°15'5 7.5
2017-Jan-15 14:33N 39°18' W 074°19'8 7.6
2017-Jan-15 13:33N 39°13' W 074°25'10 9.8
2017-Jan-15 12:32N 39°05' W 074°34'5 5.3
2017-Jan-15 11:33N 39°02' W 074°38'7 6.8
2017-Jan-15 10:33N 38°57' W 074°44'17 5.4
2017-Jan-15 07:25N 38°56' W 075°06'8 9.3
2017-Jan-15 06:33N 39°03' W 075°10'8 8.0
2017-Jan-15 05:33N 39°10' W 075°15'7 6.6
2017-Jan-15 04:33N 39°15' W 075°20'5 5.4
2017-Jan-15 03:33N 39°19' W 075°24'6 5.8
2017-Jan-15 02:33N 39°24' W 075°29'7 6.7
2017-Jan-15 01:33N 39°30' W 075°34'4 4.1
2017-Jan-15 00:33N 39°34' W 075°34'7 6.9
2017-Jan-14 23:33N 39°33' W 075°43'6 5.8
2017-Jan-14 22:33N 39°32' W 075°50'5 5.2
2017-Jan-14 21:33N 39°30' W 075°56'5 5.1
2017-Jan-14 20:33N 39°26' W 076°01'5 4.8
2017-Jan-14 19:33N 39°23' W 076°06'5 5.0
2017-Jan-14 18:33N 39°20' W 076°11'6 5.1
2017-Jan-14 17:18N 39°14' W 076°14'5 6.0
2017-Jan-14 16:33N 39°11' W 076°17'5 5.0
2017-Jan-14 15:33N 39°10' W 076°24'7 6.8
2017-Jan-14 14:33N 39°13' W 076°32'4 4.0
2017-Jan-14 13:33N 39°16' W 076°35'0 0.1
2017-Jan-14 12:33N 39°16' W 076°35'0 0.0
2017-Jan-14 11:33N 39°16' W 076°35'0 0.0
2017-Jan-14 10:33N 39°16' W 076°35'0 0.0
2017-Jan-14 09:33N 39°16' W 076°35'0 0.0
2017-Jan-14 08:33N 39°16' W 076°35'0 0.0
2017-Jan-14 07:33N 39°16' W 076°35'0 0.0
2017-Jan-14 06:33N 39°16' W 076°35'0 0.0
2017-Jan-14 05:33N 39°16' W 076°35'0 0.0
2017-Jan-14 04:33N 39°16' W 076°35'0 0.0
2017-Jan-14 03:33N 39°16' W 076°35'0 0.0
2017-Jan-13 23:33N 39°16' W 076°35'0 0.0
2017-Jan-13 22:33N 39°16' W 076°35'0 0.0
2017-Jan-13 21:33N 39°16' W 076°35'0 0.0
2017-Jan-13 20:33N 39°16' W 076°35'0 0.0
2017-Jan-13 19:33N 39°16' W 076°35'0 0.0
2017-Jan-13 18:33N 39°16' W 076°35'0 0.0
2017-Jan-13 17:33N 39°16' W 076°35'0 0.4
2017-Jan-13 16:33N 39°16' W 076°34'5 5.1
2017-Jan-13 15:33N 39°12' W 076°30'7 7.4
2017-Jan-13 14:33N 39°07' W 076°24'6 2.9
2017-Jan-13 12:33N 39°10' W 076°18'7 6.6
2017-Jan-13 11:33N 39°16' W 076°14'8 8.4
2017-Jan-13 10:33N 39°23' W 076°07'9 9.1
2017-Jan-13 09:33N 39°28' W 075°58'9 8.8
2017-Jan-13 08:33N 39°32' W 075°47'9 9.4
2017-Jan-13 07:33N 39°33' W 075°35'6 5.6
2017-Jan-13 06:33N 39°28' W 075°34'8 8.4
2017-Jan-13 05:33N 39°21' W 075°27'9 9.0
2017-Jan-13 04:33N 39°15' W 075°19'9 9.3
2017-Jan-13 03:33N 39°07' W 075°13'9 9.2
2017-Jan-13 02:33N 38°59' W 075°07'58 6.4
2017-Jan-12 17:33N 39°33' W 074°08'8 7.9
2017-Jan-12 16:30N 39°41' W 074°03'8 7.7
2017-Jan-12 15:32N 39°48' W 073°59'41 8.3
2017-Jan-12 10:33N 40°29' W 073°55'6 6.1
2017-Jan-12 09:33N 40°32' W 074°02'8 8.3
2017-Jan-12 08:33N 40°41' W 074°02'4 3.5
2017-Jan-12 07:33N 40°42' W 073°58'0 0.0
2017-Jan-12 06:33N 40°42' W 073°58'0 0.0
2017-Jan-12 05:33N 40°42' W 073°58'0 0.0
2017-Jan-12 04:33N 40°42' W 073°58'0 0.0
2017-Jan-12 03:33N 40°42' W 073°58'0 0.0
2017-Jan-12 02:33N 40°42' W 073°58'0 0.0
2017-Jan-12 01:33N 40°42' W 073°58'0 0.0
2017-Jan-12 00:33N 40°42' W 073°58'0 0.0
2017-Jan-11 23:33N 40°42' W 073°58'0 0.0
2017-Jan-11 22:33N 40°42' W 073°58'0 0.0
2017-Jan-11 21:33N 40°42' W 073°58'0 0.0
2017-Jan-11 20:33N 40°42' W 073°58'0 0.0
2017-Jan-11 19:33N 40°42' W 073°58'0 0.0
2017-Jan-11 18:33N 40°42' W 073°58'0 0.0
2017-Jan-11 17:33N 40°42' W 073°58'0 0.0
2017-Jan-11 16:33N 40°42' W 073°58'0 0.0
2017-Jan-11 15:33N 40°42' W 073°58'0 0.0
2017-Jan-11 14:33N 40°42' W 073°58'0 0.0
2017-Jan-11 13:33N 40°42' W 073°58'0 0.0
2017-Jan-11 12:33N 40°42' W 073°58'0 0.0
2017-Jan-11 11:33N 40°42' W 073°58'0 0.0
2017-Jan-11 10:33N 40°42' W 073°58'0 0.0
2017-Jan-11 09:33N 40°42' W 073°58'0 0.0
2017-Jan-11 08:33N 40°42' W 073°58'0 0.0
2017-Jan-11 07:33N 40°42' W 073°58'0 0.0
2017-Jan-11 06:33N 40°42' W 073°58'0 0.0
2017-Jan-11 05:33N 40°42' W 073°58'0 0.0
2017-Jan-11 04:33N 40°42' W 073°58'0 0.0
2017-Jan-11 03:33N 40°42' W 073°58'0 0.0
2017-Jan-11 02:33N 40°42' W 073°58'0 0.0
2017-Jan-11 01:33N 40°42' W 073°58'0 0.0
2017-Jan-11 00:33N 40°42' W 073°58'0 0.0
2017-Jan-10 23:33N 40°42' W 073°58'0 0.0
2017-Jan-10 22:33N 40°42' W 073°58'0 0.0
2017-Jan-10 21:33N 40°42' W 073°58'0 0.0
2017-Jan-10 20:33N 40°42' W 073°58'0 0.0
2017-Jan-10 19:33N 40°42' W 073°58'0 0.0
2017-Jan-10 18:33N 40°42' W 073°58'0 0.0
2017-Jan-10 17:33N 40°42' W 073°58'0 0.0
2017-Jan-10 16:33N 40°42' W 073°58'0 0.0
2017-Jan-10 15:33N 40°42' W 073°58'0 0.0
2017-Jan-10 14:33N 40°42' W 073°58'0 0.0
2017-Jan-10 13:33N 40°42' W 073°58'0 0.0
2017-Jan-10 12:33N 40°42' W 073°58'2 1.6
2017-Jan-10 11:33N 40°42' W 074°00'5 5.2
2017-Jan-10 10:34N 40°37' W 074°04'5 4.8
2017-Jan-10 09:33N 40°33' W 074°02'6 6.3
2017-Jan-10 08:32N 40°29' W 073°55'37 6.1
2017-Jan-10 02:30N 39°52' W 073°57'6 5.9
2017-Jan-10 01:28N 39°46' W 073°58'6 6.0
2017-Jan-10 00:31N 39°41' W 074°01'6 6.1
2017-Jan-09 23:33N 39°35' W 074°04'60 5.0
2017-Jan-09 11:31N 39°04' W 075°10'4 4.2
2017-Jan-09 10:33N 39°07' W 075°13'3 3.3
2017-Jan-09 09:33N 39°10' W 075°15'3 3.1
2017-Jan-09 08:33N 39°13' W 075°17'5 4.8
2017-Jan-09 07:33N 39°16' W 075°21'7 6.9
2017-Jan-09 06:33N 39°22' W 075°27'8 8.1
2017-Jan-09 05:33N 39°28' W 075°34'6 5.8
2017-Jan-09 04:33N 39°34' W 075°35'6 5.8
2017-Jan-09 03:33N 39°33' W 075°42'5 5.3
2017-Jan-09 02:33N 39°32' W 075°49'5 4.8
2017-Jan-09 01:33N 39°30' W 075°55'6 5.6
2017-Jan-09 00:33N 39°26' W 075°60'5 5.4
2017-Jan-08 23:33N 39°23' W 076°05'5 5.4
2017-Jan-08 22:33N 39°20' W 076°11'7 4.8
2017-Jan-08 21:11N 39°14' W 076°14'3 5.0
2017-Jan-08 20:32N 39°11' W 076°17'5 4.4
2017-Jan-08 19:17N 39°10' W 076°23'4 4.9
2017-Jan-08 18:32N 39°11' W 076°28'5 5.0
2017-Jan-08 17:33N 39°14' W 076°33'2 2.4
2017-Jan-08 16:33N 39°16' W 076°35'0 0.0
2017-Jan-08 15:33N 39°16' W 076°35'0 0.0
2017-Jan-08 14:33N 39°16' W 076°35'0 0.0
2017-Jan-08 13:33N 39°16' W 076°35'0 0.0
2017-Jan-08 12:33N 39°16' W 076°35'0 0.0
2017-Jan-08 11:33N 39°16' W 076°35'0 0.0
2017-Jan-08 10:33N 39°16' W 076°35'0 0.0
2017-Jan-08 09:33N 39°16' W 076°35'0 0.0
2017-Jan-08 08:33N 39°16' W 076°35'0 0.0
2017-Jan-08 07:33N 39°16' W 076°35'0 0.0
2017-Jan-08 06:33N 39°16' W 076°35'0 0.0
2017-Jan-08 05:33N 39°16' W 076°35'0 0.0
2017-Jan-08 04:33N 39°16' W 076°35'0 0.0
2017-Jan-08 03:32N 39°16' W 076°35'0 0.2
2017-Jan-08 02:33N 39°16' W 076°35'0 0.2
2017-Jan-08 01:30N 39°16' W 076°35'0 0.0
2017-Jan-08 00:33N 39°16' W 076°35'0 0.0
2017-Jan-07 23:30N 39°16' W 076°35'0 0.0
2017-Jan-07 22:33N 39°16' W 076°35'  

Dump ship's entire track history